createdAt,value
2018-04-30T00:00:21.960Z,9.33
2018-04-30T00:02:48.016Z,8.95
2018-04-30T00:05:14.037Z,8.86
2018-04-30T00:07:40.025Z,8.83
2018-04-30T00:10:13.063Z,9.21
2018-04-30T00:12:39.195Z,9.16
2018-04-30T00:15:05.202Z,9.13
2018-04-30T00:17:31.238Z,9.23
2018-04-30T00:19:57.270Z,9.55
2018-04-30T00:22:23.294Z,12.15
2018-04-30T00:24:49.351Z,12.75
2018-04-30T00:27:15.370Z,12.67
2018-04-30T00:29:41.363Z,13.09
2018-04-30T00:32:07.517Z,13.34
2018-04-30T00:34:33.529Z,11.74
2018-04-30T00:36:59.557Z,9.78
2018-04-30T00:39:25.553Z,9.21
2018-04-30T00:41:51.668Z,12.10
2018-04-30T00:44:17.673Z,13.26
2018-04-30T00:46:43.713Z,10.71
2018-04-30T00:49:09.831Z,12.33
2018-04-30T00:51:35.948Z,13.37
2018-04-30T00:54:01.987Z,12.72
2018-04-30T00:56:27.977Z,11.01
2018-04-30T00:58:54.013Z,9.63
2018-04-30T01:01:20.045Z,10.16
2018-04-30T01:03:46.080Z,9.48
2018-04-30T01:06:12.094Z,12.56
2018-04-30T01:08:38.891Z,13.02
2018-04-30T01:11:04.898Z,12.09
2018-04-30T01:13:30.908Z,11.33
2018-04-30T01:15:56.883Z,11.69
2018-04-30T08:56:06.492Z,13.30
2018-04-30T08:58:32.517Z,14.73
2018-04-30T09:00:58.596Z,12.36
2018-04-30T09:03:24.662Z,12.33
2018-04-30T09:05:50.652Z,12.03
2018-04-30T09:08:16.725Z,11.73
2018-04-30T09:10:42.780Z,11.97
2018-04-30T09:13:08.823Z,11.97
2018-04-30T09:15:34.881Z,11.73
2018-04-30T09:18:00.942Z,11.59
2018-04-30T09:20:26.993Z,11.70
2018-04-30T09:22:53.012Z,11.57
2018-04-30T09:25:19.066Z,11.89
2018-04-30T09:27:45.120Z,11.92
2018-04-30T09:30:11.169Z,11.59
2018-04-30T09:32:37.277Z,11.55
2018-04-30T09:35:03.353Z,11.11
2018-04-30T09:37:29.352Z,10.98
2018-04-30T09:39:55.361Z,10.87
2018-04-30T09:42:21.392Z,11.16
2018-04-30T09:44:47.462Z,10.91
2018-04-30T09:47:13.563Z,11.02
2018-04-30T09:49:44.787Z,11.02
2018-04-30T09:52:10.842Z,11.14
2018-04-30T09:54:36.955Z,11.39
2018-04-30T09:57:02.971Z,11.81
2018-04-30T09:59:29.010Z,12.05
2018-04-30T10:01:55.053Z,11.83
2018-04-30T10:04:21.108Z,12.07
2018-04-30T10:06:47.140Z,11.59
2018-04-30T10:09:13.266Z,11.37
2018-04-30T10:11:39.287Z,11.06
2018-04-30T10:14:05.296Z,10.88
2018-04-30T10:16:31.324Z,11.65
2018-04-30T10:18:57.294Z,11.57
2018-04-30T10:21:23.293Z,11.65
2018-04-30T10:23:49.410Z,11.48
2018-04-30T10:26:15.397Z,11.32
2018-04-30T10:28:41.429Z,11.64
2018-04-30T10:31:07.464Z,10.98
2018-04-30T10:33:33.472Z,10.94
2018-04-30T10:35:59.527Z,10.92
2018-04-30T10:38:25.562Z,11.47
2018-04-30T10:40:51.586Z,10.99
2018-04-30T10:43:17.709Z,11.50
2018-04-30T10:45:43.804Z,11.47
2018-04-30T10:48:09.762Z,11.31
2018-04-30T10:50:36.425Z,11.65
2018-04-30T10:53:02.514Z,11.23
2018-04-30T10:55:28.589Z,11.12
2018-04-30T10:57:54.857Z,11.39
2018-04-30T11:00:20.932Z,11.10
2018-04-30T11:02:47.020Z,11.08
2018-04-30T11:05:13.064Z,11.30
2018-04-30T11:07:39.064Z,11.09
2018-04-30T11:10:05.196Z,11.17
2018-04-30T11:12:31.330Z,11.01
2018-04-30T11:14:57.300Z,11.35
2018-04-30T11:17:23.347Z,11.15
2018-04-30T11:19:49.400Z,11.22
2018-04-30T11:22:15.393Z,11.47
2018-04-30T11:24:41.424Z,11.39
2018-04-30T11:27:07.505Z,11.19
2018-04-30T11:29:33.528Z,11.14
2018-04-30T11:31:59.621Z,11.26
2018-04-30T11:34:25.652Z,11.21
2018-04-30T11:36:51.727Z,11.23
2018-04-30T11:39:17.768Z,11.16
2018-04-30T11:41:43.906Z,10.92
2018-04-30T11:44:09.941Z,11.28
2018-04-30T11:46:35.985Z,11.57
2018-04-30T11:49:03.073Z,11.46
2018-04-30T11:51:29.095Z,11.13
2018-04-30T11:53:55.122Z,11.33
2018-04-30T11:56:21.166Z,11.64
2018-04-30T11:58:47.236Z,11.74
2018-04-30T12:01:13.236Z,11.74
2018-04-30T12:03:39.295Z,11.45
2018-04-30T12:06:05.388Z,11.40
2018-04-30T12:08:31.435Z,11.53
2018-04-30T12:10:57.583Z,11.28
2018-04-30T12:13:23.588Z,11.61
2018-04-30T12:15:49.649Z,11.78
2018-04-30T12:18:15.736Z,11.85
2018-04-30T12:20:41.865Z,11.78
2018-04-30T12:23:08.018Z,11.49
2018-04-30T12:25:34.194Z,11.42
2018-04-30T12:28:00.248Z,11.54
2018-04-30T12:30:26.262Z,11.49
2018-04-30T12:32:53.361Z,12.79
2018-04-30T12:35:19.415Z,12.55
2018-04-30T12:37:45.628Z,11.89
2018-04-30T12:40:11.701Z,11.69
2018-04-30T12:42:37.729Z,11.91
2018-04-30T12:45:03.787Z,11.98
2018-04-30T12:47:29.936Z,11.81
2018-04-30T12:49:56.064Z,11.70
2018-04-30T12:52:22.120Z,11.95
2018-04-30T12:54:48.211Z,12.12
2018-04-30T12:57:14.344Z,11.97
2018-04-30T12:59:40.495Z,11.94
2018-04-30T13:02:06.502Z,12.01
2018-04-30T13:04:32.614Z,12.27
2018-04-30T13:06:58.780Z,12.26
2018-04-30T13:09:24.886Z,12.28
2018-04-30T13:11:50.968Z,12.25
2018-04-30T13:14:17.053Z,12.10
2018-04-30T13:16:43.119Z,12.17
2018-04-30T13:19:09.188Z,12.05
2018-04-30T13:21:35.294Z,11.87
2018-04-30T13:24:01.358Z,11.86
2018-04-30T13:26:27.432Z,11.77
2018-04-30T13:28:53.463Z,12.13
2018-04-30T13:31:19.489Z,11.79
2018-04-30T13:33:45.636Z,11.68
2018-04-30T13:36:11.645Z,11.66
2018-04-30T13:38:37.641Z,11.46
2018-04-30T13:41:03.688Z,11.43
2018-04-30T13:43:29.708Z,11.53
2018-04-30T13:45:55.711Z,11.55
2018-04-30T13:48:21.782Z,11.46
2018-04-30T13:50:47.961Z,11.18
2018-04-30T13:53:14.077Z,11.06
2018-04-30T13:55:40.137Z,10.99
2018-04-30T13:58:06.153Z,11.07
2018-04-30T14:00:32.232Z,10.89
2018-04-30T14:02:58.296Z,10.62
2018-04-30T14:05:24.340Z,10.48
2018-04-30T14:07:50.410Z,10.25
2018-04-30T14:10:16.520Z,10.06
2018-04-30T14:12:42.586Z,9.93
2018-04-30T14:15:08.604Z,9.90
2018-04-30T14:17:34.648Z,9.85
2018-04-30T14:20:00.839Z,9.71
2018-04-30T14:22:26.874Z,9.59
2018-04-30T14:24:52.933Z,9.70
2018-04-30T14:27:18.995Z,9.55
2018-04-30T14:29:44.984Z,9.40
2018-04-30T14:32:11.032Z,9.34
2018-04-30T14:34:37.047Z,9.29
2018-04-30T14:37:03.057Z,9.20
2018-04-30T14:39:29.062Z,9.11
2018-04-30T14:41:55.110Z,9.10
2018-04-30T14:44:21.134Z,9.03
2018-04-30T14:46:47.217Z,9.07
2018-04-30T14:49:13.200Z,9.17
2018-04-30T14:51:39.228Z,9.18
2018-04-30T14:54:05.273Z,9.09
2018-04-30T14:56:31.319Z,9.04
2018-04-30T14:58:57.373Z,8.91
2018-04-30T15:01:23.447Z,8.77
2018-04-30T15:03:49.537Z,8.75
2018-04-30T15:06:15.619Z,8.60
2018-04-30T15:08:41.624Z,8.61
2018-04-30T15:11:07.728Z,8.52
2018-04-30T15:13:33.874Z,8.43
2018-04-30T15:15:59.912Z,8.38
2018-04-30T15:18:25.985Z,8.44
2018-04-30T15:20:52.874Z,8.47
2018-04-30T15:23:18.961Z,8.44
2018-04-30T15:25:45.022Z,8.39
2018-04-30T15:28:11.308Z,8.39
2018-04-30T15:30:37.132Z,8.38
2018-04-30T15:33:03.188Z,8.47
2018-04-30T15:35:29.255Z,8.44
2018-04-30T15:37:55.279Z,8.54
2018-04-30T15:40:21.420Z,8.48
2018-04-30T15:42:47.460Z,8.26
2018-04-30T15:45:13.478Z,8.24
2018-04-30T15:47:39.521Z,8.29
2018-04-30T15:50:05.524Z,8.40
2018-04-30T15:52:31.723Z,8.35
2018-04-30T15:54:57.763Z,8.37
2018-04-30T15:57:23.809Z,8.40
2018-04-30T15:59:50.004Z,8.39
2018-04-30T16:02:16.244Z,8.41
2018-04-30T16:04:42.524Z,8.57
2018-04-30T16:07:08.734Z,8.48
2018-04-30T16:09:34.769Z,8.50
2018-04-30T16:12:00.864Z,8.52
2018-04-30T16:14:26.991Z,8.46
2018-04-30T16:16:53.077Z,8.38
2018-04-30T16:19:19.692Z,8.39
2018-04-30T16:21:45.761Z,8.39
2018-04-30T16:24:11.793Z,8.40
2018-04-30T16:26:37.875Z,8.41
2018-04-30T16:29:03.893Z,8.33
2018-04-30T16:31:29.937Z,8.30
2018-04-30T16:33:56.088Z,8.28
2018-04-30T16:36:22.164Z,8.28
2018-04-30T16:38:48.319Z,8.20
2018-04-30T16:41:14.387Z,8.20
2018-04-30T16:43:40.530Z,8.20
2018-04-30T16:46:06.609Z,8.18
2018-04-30T16:48:32.685Z,8.16
2018-04-30T16:50:58.704Z,8.13
2018-04-30T16:53:24.714Z,8.09
2018-04-30T16:55:50.761Z,8.07
2018-04-30T16:58:16.785Z,8.09
2018-04-30T17:00:42.812Z,8.09
2018-04-30T17:03:08.923Z,8.06
2018-04-30T17:05:35.014Z,8.10
2018-04-30T17:08:01.067Z,8.14
2018-04-30T17:10:27.179Z,8.12
2018-04-30T17:12:53.190Z,8.22
2018-04-30T17:15:19.245Z,8.17
2018-04-30T17:17:45.323Z,7.95
2018-04-30T17:20:11.314Z,7.94
2018-04-30T17:22:37.402Z,7.81
2018-04-30T17:25:03.522Z,8.00
2018-04-30T17:27:29.526Z,7.99
2018-04-30T17:29:55.611Z,8.01
2018-04-30T17:32:21.779Z,8.07
2018-04-30T17:34:47.799Z,8.20
2018-04-30T17:37:13.807Z,8.09
2018-04-30T17:39:39.938Z,8.10
2018-04-30T17:42:05.963Z,8.00
2018-04-30T17:44:32.007Z,8.01
2018-04-30T17:46:58.180Z,8.04
2018-04-30T17:49:24.319Z,8.11
2018-04-30T17:51:50.499Z,8.18
2018-04-30T17:54:16.591Z,8.10
2018-04-30T17:56:42.721Z,8.16
2018-04-30T17:59:08.775Z,8.27
2018-04-30T18:01:34.934Z,8.21
2018-04-30T18:04:00.989Z,8.31
2018-04-30T18:06:27.017Z,8.36
2018-04-30T18:08:53.111Z,8.31
2018-04-30T18:11:19.135Z,8.31
2018-04-30T18:13:45.171Z,8.26
2018-04-30T18:16:11.258Z,8.14
2018-04-30T18:18:37.272Z,8.15
2018-04-30T18:21:03.351Z,8.14
2018-04-30T18:23:29.370Z,8.06
2018-04-30T18:25:55.374Z,8.02
2018-04-30T18:28:21.389Z,7.96
2018-04-30T18:30:47.505Z,7.91
2018-04-30T18:33:13.606Z,7.92
2018-04-30T18:35:39.655Z,7.70
2018-04-30T18:38:05.721Z,7.70
2018-04-30T18:40:31.734Z,7.64
2018-04-30T18:42:57.777Z,7.61
2018-04-30T18:45:23.860Z,7.49
2018-04-30T18:47:49.977Z,7.47
2018-04-30T18:50:15.984Z,7.37
2018-04-30T18:52:42.253Z,7.38
2018-04-30T18:55:08.406Z,7.32
2018-04-30T18:57:34.542Z,7.30
2018-04-30T19:00:00.645Z,7.29
2018-04-30T19:02:26.693Z,7.33
2018-04-30T19:04:52.948Z,7.25
2018-04-30T19:07:19.092Z,7.46
2018-04-30T19:09:45.132Z,7.35
2018-04-30T19:12:11.298Z,7.37
2018-04-30T19:14:37.311Z,7.33
2018-04-30T19:17:03.372Z,7.50
2018-04-30T19:19:29.476Z,7.47
2018-04-30T19:21:55.517Z,7.51
2018-04-30T19:24:21.514Z,7.30
2018-04-30T19:26:47.515Z,7.17
2018-04-30T19:29:13.550Z,7.32
2018-04-30T19:31:39.557Z,7.33
2018-04-30T19:34:05.605Z,7.33
2018-04-30T19:36:31.645Z,7.33
2018-04-30T19:38:57.764Z,7.39
2018-04-30T19:41:23.952Z,7.39
2018-04-30T19:43:50.034Z,7.40
2018-04-30T19:46:16.102Z,7.79
2018-04-30T19:48:42.218Z,7.92
2018-04-30T19:51:08.305Z,7.72
2018-04-30T19:53:34.390Z,7.71
2018-04-30T19:56:00.485Z,7.84
2018-04-30T19:58:26.576Z,7.85
2018-04-30T20:00:52.704Z,7.77
2018-04-30T20:03:18.765Z,7.76
2018-04-30T20:05:44.813Z,7.75
2018-04-30T20:08:10.857Z,7.72
2018-04-30T20:10:36.994Z,7.77
2018-04-30T20:13:03.010Z,7.73
2018-04-30T20:15:29.039Z,7.67
2018-04-30T20:17:55.079Z,7.71
2018-04-30T20:20:21.247Z,7.78
2018-04-30T20:22:47.181Z,7.57
2018-04-30T20:25:13.238Z,7.53
2018-04-30T20:27:39.308Z,7.49
2018-04-30T20:30:05.398Z,7.52
2018-04-30T20:32:31.466Z,7.47
2018-04-30T20:34:57.524Z,7.42
2018-04-30T20:37:23.569Z,7.39
2018-04-30T20:39:50.348Z,7.33
2018-04-30T20:42:16.462Z,7.26
2018-04-30T20:44:42.487Z,7.30
2018-04-30T20:47:08.554Z,7.30
2018-04-30T20:49:34.577Z,7.37
2018-04-30T20:52:00.720Z,7.33
2018-04-30T20:54:26.727Z,7.31
2018-04-30T20:56:52.769Z,7.22
2018-04-30T20:59:18.863Z,7.21
2018-04-30T21:01:44.888Z,7.34
2018-04-30T21:04:10.927Z,7.28
2018-04-30T21:06:37.334Z,7.23
2018-04-30T21:09:12.641Z,7.29
2018-04-30T21:11:38.799Z,7.45
2018-04-30T21:14:04.855Z,7.41
2018-04-30T21:16:30.961Z,7.38
2018-04-30T21:18:57.183Z,7.37
2018-04-30T21:21:23.225Z,7.22
2018-04-30T21:23:49.326Z,7.10
2018-04-30T21:26:15.357Z,6.98
2018-04-30T21:28:41.405Z,7.00
2018-04-30T21:31:07.448Z,7.06
2018-04-30T21:33:33.524Z,6.98
2018-04-30T21:35:59.653Z,7.04
2018-04-30T21:38:25.713Z,6.89
2018-04-30T21:40:51.813Z,6.75
2018-04-30T21:43:18.072Z,6.71
2018-04-30T21:45:44.201Z,6.76
2018-04-30T21:48:10.361Z,6.81
2018-04-30T21:50:36.430Z,6.78
2018-04-30T21:53:02.441Z,6.65
2018-04-30T21:55:28.572Z,6.64
2018-04-30T21:57:54.980Z,6.49
2018-04-30T22:00:26.945Z,6.80
2018-04-30T22:02:52.993Z,6.73
2018-04-30T22:05:19.194Z,6.69
2018-04-30T22:07:45.227Z,6.97
2018-04-30T22:10:11.220Z,6.92
2018-04-30T22:12:37.244Z,6.86
2018-04-30T22:15:03.277Z,6.92
2018-04-30T22:17:29.281Z,6.82
2018-04-30T22:19:55.347Z,6.76
2018-04-30T22:22:21.359Z,6.72
2018-04-30T22:24:47.580Z,6.60
2018-04-30T22:27:13.730Z,6.64
2018-04-30T22:29:39.746Z,6.50
2018-04-30T22:32:06.100Z,6.41
2018-04-30T22:34:32.208Z,6.60
2018-04-30T22:36:58.253Z,6.61
2018-04-30T22:39:24.364Z,6.69
2018-04-30T22:41:50.479Z,6.64
2018-04-30T22:44:16.548Z,6.63
2018-04-30T22:46:43.372Z,6.56
2018-04-30T22:49:09.356Z,6.41
2018-04-30T22:51:35.878Z,6.27
2018-04-30T22:54:02.031Z,6.17
2018-04-30T22:56:28.025Z,6.10
2018-04-30T22:58:54.146Z,6.20
2018-04-30T23:01:20.806Z,6.32
2018-04-30T23:03:46.865Z,6.44
2018-04-30T23:06:12.987Z,6.45
2018-04-30T23:08:38.986Z,6.53
2018-04-30T23:11:04.989Z,6.46
2018-04-30T23:13:31.005Z,6.46
2018-04-30T23:15:57.027Z,6.49
2018-04-30T23:18:23.071Z,6.50
2018-04-30T23:20:49.101Z,6.40
2018-04-30T23:23:15.140Z,6.42
2018-04-30T23:25:41.216Z,6.50
2018-04-30T23:28:07.323Z,6.44
2018-04-30T23:30:33.356Z,6.34
2018-04-30T23:32:59.351Z,6.26
2018-04-30T23:35:26.449Z,6.12
2018-04-30T23:37:52.651Z,6.11
2018-04-30T23:40:18.673Z,6.01
2018-04-30T23:42:44.682Z,5.94
2018-04-30T23:45:11.339Z,5.96
2018-04-30T23:47:37.340Z,6.07
2018-04-30T23:50:03.389Z,5.95
2018-04-30T23:52:29.395Z,5.97
2018-04-30T23:54:55.413Z,6.01
2018-04-30T23:57:21.422Z,5.94
2018-04-30T23:59:47.442Z,5.98
